CYCX

CFB Gagetown Heliport

Gagetown, New Brunswick, Canada
METAR CYCX 201200Z 20011G19KT 12SM FEW030 OVC140 13/09 A2958 RMK SC2AC6 DA482FT SLP019
Observed Flight Rules
Oct-20 @ 12:00 UTC (52 minutes ago) Visual Flight Rules
Wind Visibility Clouds
200° at 11 knots
 Gusting to 19 knots
12 miles
  • Few at 3,000' AGL
  • Overcast at 14,000' AGL
Temperatures Readings
Current 13°C / 55°F
Dewpoint 9°C / 48°F
Humidity 77%
Altimeter 29.58" Hg
Pressure 1001.9 hPa
Elevation 51
METAR CYCX 201200Z 20011G19KT 12SM FEW030 OVC140 13/09 A2958 RMK SC2AC6 DA482FT SLP019
Observed Flight Rules
Oct-20 @ 12:00 UTC
(52 minutes ago)
VFR
Wind Visibility
200° at 11 knots
 Gusting to 19 knots
12 miles
Clouds
  • Few at 3,000' AGL
  • Overcast at 14,000' AGL
Temperature Dewpoint
13°C / 55°F 9°C / 48°F
Humidity Altimeter Pressure
77% 29.58" Hg 1001.9 hPa